sensor_id;sensor_type;location;lat;lon;timestamp;P1;durP1;ratioP1;P2;durP2;ratioP2
54263;SDS011;40178;53.042;6.406;2023-04-21T00:00:47;28.27;;;17.05;;
54263;SDS011;40178;53.042;6.406;2023-04-21T00:03:13;21.88;;;15.60;;
54263;SDS011;40178;53.042;6.406;2023-04-21T00:05:38;23.08;;;15.95;;
54263;SDS011;40178;53.042;6.406;2023-04-21T00:08:06;21.92;;;15.73;;
54263;SDS011;40178;53.042;6.406;2023-04-21T00:10:32;25.45;;;15.93;;
54263;SDS011;40178;53.042;6.406;2023-04-21T00:12:58;22.17;;;14.80;;
54263;SDS011;40178;53.042;6.406;2023-04-21T00:15:23;20.25;;;14.40;;
54263;SDS011;40178;53.042;6.406;2023-04-21T00:17:49;24.30;;;15.43;;
54263;SDS011;40178;53.042;6.406;2023-04-21T00:20:15;24.77;;;15.90;;
54263;SDS011;40178;53.042;6.406;2023-04-21T00:22:40;26.00;;;14.52;;
54263;SDS011;40178;53.042;6.406;2023-04-21T00:25:06;21.58;;;13.35;;
54263;SDS011;40178;53.042;6.406;2023-04-21T00:27:32;22.80;;;14.43;;
54263;SDS011;40178;53.042;6.406;2023-04-21T00:29:58;19.60;;;13.70;;
54263;SDS011;40178;53.042;6.406;2023-04-21T00:32:23;26.15;;;14.20;;
54263;SDS011;40178;53.042;6.406;2023-04-21T00:34:49;20.20;;;13.65;;
54263;SDS011;40178;53.042;6.406;2023-04-21T00:37:15;22.52;;;13.43;;
54263;SDS011;40178;53.042;6.406;2023-04-21T00:39:41;20.35;;;13.18;;
54263;SDS011;40178;53.042;6.406;2023-04-21T00:42:06;21.42;;;13.93;;
54263;SDS011;40178;53.042;6.406;2023-04-21T00:44:32;21.95;;;13.85;;
54263;SDS011;40178;53.042;6.406;2023-04-21T00:46:57;22.15;;;13.60;;
54263;SDS011;40178;53.042;6.406;2023-04-21T00:49:23;19.98;;;13.25;;
54263;SDS011;40178;53.042;6.406;2023-04-21T00:51:49;19.30;;;12.73;;
54263;SDS011;40178;53.042;6.406;2023-04-21T00:54:16;20.45;;;13.60;;
54263;SDS011;40178;53.042;6.406;2023-04-21T00:56:43;22.42;;;13.32;;
54263;SDS011;40178;53.042;6.406;2023-04-21T00:59:09;21.95;;;13.30;;
54263;SDS011;40178;53.042;6.406;2023-04-21T01:01:35;19.00;;;12.55;;
54263;SDS011;40178;53.042;6.406;2023-04-21T01:04:01;21.67;;;13.15;;
54263;SDS011;40178;53.042;6.406;2023-04-21T01:06:29;21.30;;;13.32;;
54263;SDS011;40178;53.042;6.406;2023-04-21T01:08:57;20.50;;;13.25;;
54263;SDS011;40178;53.042;6.406;2023-04-21T01:11:23;19.40;;;12.18;;
54263;SDS011;40178;53.042;6.406;2023-04-21T01:13:51;19.08;;;12.82;;
54263;SDS011;40178;53.042;6.406;2023-04-21T01:16:18;21.58;;;14.02;;
54263;SDS011;40178;53.042;6.406;2023-04-21T01:18:45;22.17;;;12.52;;
54263;SDS011;40178;53.042;6.406;2023-04-21T01:21:11;18.58;;;12.73;;
54263;SDS011;40178;53.042;6.406;2023-04-21T01:23:41;26.88;;;13.70;;
54263;SDS011;40178;53.042;6.406;2023-04-21T01:26:07;19.95;;;12.77;;
54263;SDS011;40178;53.042;6.406;2023-04-21T01:28:33;22.55;;;12.23;;
54263;SDS011;40178;53.042;6.406;2023-04-21T01:30:59;19.75;;;13.90;;
54263;SDS011;40178;53.042;6.406;2023-04-21T01:33:25;18.23;;;12.20;;
54263;SDS011;40178;53.042;6.406;2023-04-21T01:35:51;22.20;;;12.85;;
54263;SDS011;40178;53.042;6.406;2023-04-21T01:38:16;20.73;;;12.45;;
54263;SDS011;40178;53.042;6.406;2023-04-21T01:40:43;18.42;;;12.57;;
54263;SDS011;40178;53.042;6.406;2023-04-21T01:43:13;20.45;;;12.75;;
54263;SDS011;40178;53.042;6.406;2023-04-21T01:45:40;19.40;;;12.48;;
54263;SDS011;40178;53.042;6.406;2023-04-21T01:48:05;20.08;;;12.35;;
54263;SDS011;40178;53.042;6.406;2023-04-21T01:50:31;20.10;;;12.30;;
54263;SDS011;40178;53.042;6.406;2023-04-21T01:52:56;19.25;;;13.02;;
54263;SDS011;40178;53.042;6.406;2023-04-21T01:55:22;19.00;;;11.93;;
54263;SDS011;40178;53.042;6.406;2023-04-21T01:57:48;19.25;;;12.45;;
54263;SDS011;40178;53.042;6.406;2023-04-21T02:00:14;21.30;;;12.80;;
54263;SDS011;40178;53.042;6.406;2023-04-21T02:02:40;20.85;;;13.50;;
54263;SDS011;40178;53.042;6.406;2023-04-21T02:05:06;20.30;;;13.32;;
54263;SDS011;40178;53.042;6.406;2023-04-21T02:07:31;18.20;;;12.02;;
54263;SDS011;40178;53.042;6.406;2023-04-21T02:09:57;19.30;;;12.02;;
54263;SDS011;40178;53.042;6.406;2023-04-21T02:12:23;19.85;;;11.82;;
54263;SDS011;40178;53.042;6.406;2023-04-21T02:14:48;19.40;;;12.65;;
54263;SDS011;40178;53.042;6.406;2023-04-21T02:17:14;18.42;;;11.95;;
54263;SDS011;40178;53.042;6.406;2023-04-21T02:19:40;18.60;;;11.52;;
54263;SDS011;40178;53.042;6.406;2023-04-21T02:22:06;19.48;;;12.02;;
54263;SDS011;40178;53.042;6.406;2023-04-21T02:24:32;20.58;;;12.82;;
54263;SDS011;40178;53.042;6.406;2023-04-21T02:26:59;23.30;;;12.73;;
54263;SDS011;40178;53.042;6.406;2023-04-21T02:29:26;18.52;;;12.15;;
54263;SDS011;40178;53.042;6.406;2023-04-21T02:31:52;19.15;;;12.20;;
54263;SDS011;40178;53.042;6.406;2023-04-21T02:34:17;21.65;;;13.10;;
54263;SDS011;40178;53.042;6.406;2023-04-21T02:36:43;20.20;;;12.07;;
54263;SDS011;40178;53.042;6.406;2023-04-21T02:39:08;20.45;;;12.82;;
54263;SDS011;40178;53.042;6.406;2023-04-21T02:41:34;20.40;;;13.40;;
54263;SDS011;40178;53.042;6.406;2023-04-21T02:44:00;17.40;;;11.68;;
54263;SDS011;40178;53.042;6.406;2023-04-21T02:46:25;18.38;;;12.45;;
54263;SDS011;40178;53.042;6.406;2023-04-21T02:48:51;18.60;;;11.65;;
54263;SDS011;40178;53.042;6.406;2023-04-21T02:51:16;21.38;;;13.48;;
54263;SDS011;40178;53.042;6.406;2023-04-21T02:53:42;19.23;;;12.30;;
54263;SDS011;40178;53.042;6.406;2023-04-21T02:56:08;19.45;;;12.80;;
54263;SDS011;40178;53.042;6.406;2023-04-21T02:58:34;18.45;;;11.85;;
54263;SDS011;40178;53.042;6.406;2023-04-21T03:01:00;21.52;;;12.52;;
54263;SDS011;40178;53.042;6.406;2023-04-21T03:03:28;20.85;;;12.77;;
54263;SDS011;40178;53.042;6.406;2023-04-21T03:06:00;19.02;;;12.23;;
54263;SDS011;40178;53.042;6.406;2023-04-21T03:08:28;17.90;;;11.60;;
54263;SDS011;40178;53.042;6.406;2023-04-21T03:10:54;18.80;;;12.77;;
54263;SDS011;40178;53.042;6.406;2023-04-21T03:13:20;17.42;;;12.43;;
54263;SDS011;40178;53.042;6.406;2023-04-21T03:15:47;19.02;;;13.02;;
54263;SDS011;40178;53.042;6.406;2023-04-21T03:18:13;21.95;;;13.50;;
54263;SDS011;40178;53.042;6.406;2023-04-21T03:20:38;21.92;;;13.20;;
54263;SDS011;40178;53.042;6.406;2023-04-21T03:23:04;22.98;;;13.43;;
54263;SDS011;40178;53.042;6.406;2023-04-21T03:25:30;18.92;;;12.77;;
54263;SDS011;40178;53.042;6.406;2023-04-21T03:27:55;23.05;;;14.15;;
54263;SDS011;40178;53.042;6.406;2023-04-21T03:30:21;21.60;;;13.68;;
54263;SDS011;40178;53.042;6.406;2023-04-21T03:32:48;20.27;;;13.32;;
54263;SDS011;40178;53.042;6.406;2023-04-21T03:35:14;20.67;;;12.77;;
54263;SDS011;40178;53.042;6.406;2023-04-21T03:37:43;21.70;;;13.95;;
54263;SDS011;40178;53.042;6.406;2023-04-21T03:40:08;19.85;;;13.43;;
54263;SDS011;40178;53.042;6.406;2023-04-21T03:42:35;21.65;;;13.30;;
54263;SDS011;40178;53.042;6.406;2023-04-21T03:45:01;25.27;;;14.18;;
54263;SDS011;40178;53.042;6.406;2023-04-21T03:47:28;19.40;;;13.55;;
54263;SDS011;40178;53.042;6.406;2023-04-21T03:49:54;19.95;;;13.10;;
54263;SDS011;40178;53.042;6.406;2023-04-21T03:52:19;20.95;;;13.55;;
54263;SDS011;40178;53.042;6.406;2023-04-21T03:54:45;20.70;;;13.00;;
54263;SDS011;40178;53.042;6.406;2023-04-21T03:57:10;21.48;;;13.30;;
54263;SDS011;40178;53.042;6.406;2023-04-21T03:59:36;20.63;;;12.98;;
54263;SDS011;40178;53.042;6.406;2023-04-21T04:02:02;22.35;;;12.30;;
54263;SDS011;40178;53.042;6.406;2023-04-21T04:04:27;23.65;;;13.15;;
54263;SDS011;40178;53.042;6.406;2023-04-21T04:06:53;21.25;;;14.15;;
54263;SDS011;40178;53.042;6.406;2023-04-21T04:09:18;20.10;;;13.75;;
54263;SDS011;40178;53.042;6.406;2023-04-21T04:11:44;22.52;;;13.65;;
54263;SDS011;40178;53.042;6.406;2023-04-21T04:14:10;22.25;;;13.55;;
54263;SDS011;40178;53.042;6.406;2023-04-21T04:16:35;19.35;;;12.45;;
54263;SDS011;40178;53.042;6.406;2023-04-21T04:19:01;21.27;;;13.52;;
54263;SDS011;40178;53.042;6.406;2023-04-21T04:21:27;23.50;;;13.07;;
54263;SDS011;40178;53.042;6.406;2023-04-21T04:23:53;20.15;;;13.20;;
54263;SDS011;40178;53.042;6.406;2023-04-21T04:26:19;20.10;;;12.57;;
54263;SDS011;40178;53.042;6.406;2023-04-21T04:28:46;22.05;;;14.15;;
54263;SDS011;40178;53.042;6.406;2023-04-21T04:31:12;24.25;;;13.52;;
54263;SDS011;40178;53.042;6.406;2023-04-21T04:33:45;21.83;;;14.30;;
54263;SDS011;40178;53.042;6.406;2023-04-21T04:36:10;22.48;;;12.65;;
54263;SDS011;40178;53.042;6.406;2023-04-21T04:38:36;19.38;;;12.98;;
54263;SDS011;40178;53.042;6.406;2023-04-21T04:41:02;19.42;;;12.80;;
54263;SDS011;40178;53.042;6.406;2023-04-21T04:43:29;21.33;;;13.05;;
54263;SDS011;40178;53.042;6.406;2023-04-21T04:46:04;17.88;;;13.30;;
54263;SDS011;40178;53.042;6.406;2023-04-21T04:48:30;23.38;;;13.57;;
54263;SDS011;40178;53.042;6.406;2023-04-21T04:50:56;21.08;;;13.57;;
54263;SDS011;40178;53.042;6.406;2023-04-21T04:53:21;19.02;;;13.38;;
54263;SDS011;40178;53.042;6.406;2023-04-21T04:55:47;20.17;;;12.48;;
54263;SDS011;40178;53.042;6.406;2023-04-21T04:58:13;20.38;;;11.85;;
54263;SDS011;40178;53.042;6.406;2023-04-21T05:00:39;20.58;;;12.73;;
54263;SDS011;40178;53.042;6.406;2023-04-21T05:03:05;18.02;;;12.18;;
54263;SDS011;40178;53.042;6.406;2023-04-21T05:05:30;17.70;;;11.35;;
54263;SDS011;40178;53.042;6.406;2023-04-21T05:07:56;21.13;;;12.30;;
54263;SDS011;40178;53.042;6.406;2023-04-21T05:10:22;18.80;;;11.68;;
54263;SDS011;40178;53.042;6.406;2023-04-21T05:12:48;16.80;;;11.60;;
54263;SDS011;40178;53.042;6.406;2023-04-21T05:15:13;20.50;;;11.23;;
54263;SDS011;40178;53.042;6.406;2023-04-21T05:17:39;19.45;;;11.40;;
54263;SDS011;40178;53.042;6.406;2023-04-21T05:20:05;19.67;;;11.32;;
54263;SDS011;40178;53.042;6.406;2023-04-21T05:22:38;21.70;;;11.65;;
54263;SDS011;40178;53.042;6.406;2023-04-21T05:25:04;17.25;;;11.77;;
54263;SDS011;40178;53.042;6.406;2023-04-21T05:27:31;19.02;;;11.32;;
54263;SDS011;40178;53.042;6.406;2023-04-21T05:29:58;18.10;;;11.65;;
54263;SDS011;40178;53.042;6.406;2023-04-21T05:32:24;18.83;;;12.20;;
54263;SDS011;40178;53.042;6.406;2023-04-21T05:34:50;19.98;;;12.95;;
54263;SDS011;40178;53.042;6.406;2023-04-21T05:37:15;17.33;;;11.25;;
54263;SDS011;40178;53.042;6.406;2023-04-21T05:39:41;20.85;;;12.15;;
54263;SDS011;40178;53.042;6.406;2023-04-21T05:42:10;18.60;;;10.52;;
54263;SDS011;40178;53.042;6.406;2023-04-21T05:44:36;17.65;;;10.95;;
54263;SDS011;40178;53.042;6.406;2023-04-21T05:47:03;17.73;;;11.05;;
54263;SDS011;40178;53.042;6.406;2023-04-21T05:49:29;20.23;;;11.95;;
54263;SDS011;40178;53.042;6.406;2023-04-21T05:51:55;18.48;;;11.32;;
54263;SDS011;40178;53.042;6.406;2023-04-21T05:54:20;16.67;;;11.50;;
54263;SDS011;40178;53.042;6.406;2023-04-21T05:56:46;18.25;;;10.48;;
54263;SDS011;40178;53.042;6.406;2023-04-21T05:59:12;17.10;;;11.27;;
54263;SDS011;40178;53.042;6.406;2023-04-21T06:01:38;19.27;;;11.52;;
54263;SDS011;40178;53.042;6.406;2023-04-21T06:04:03;17.00;;;10.20;;
54263;SDS011;40178;53.042;6.406;2023-04-21T06:06:29;16.38;;;10.90;;
54263;SDS011;40178;53.042;6.406;2023-04-21T06:08:55;17.88;;;10.55;;
54263;SDS011;40178;53.042;6.406;2023-04-21T06:11:21;16.33;;;11.10;;
54263;SDS011;40178;53.042;6.406;2023-04-21T06:13:48;15.70;;;10.00;;
54263;SDS011;40178;53.042;6.406;2023-04-21T06:16:13;17.85;;;10.60;;
54263;SDS011;40178;53.042;6.406;2023-04-21T06:18:39;18.88;;;10.95;;
54263;SDS011;40178;53.042;6.406;2023-04-21T06:21:05;14.93;;;10.52;;
54263;SDS011;40178;53.042;6.406;2023-04-21T06:23:30;20.40;;;11.45;;
54263;SDS011;40178;53.042;6.406;2023-04-21T06:28:30;15.70;;;10.07;;
54263;SDS011;40178;53.042;6.406;2023-04-21T06:30:56;17.05;;;9.90;;
54263;SDS011;40178;53.042;6.406;2023-04-21T06:33:22;14.80;;;10.25;;
54263;SDS011;40178;53.042;6.406;2023-04-21T06:35:48;18.40;;;10.50;;
54263;SDS011;40178;53.042;6.406;2023-04-21T06:38:13;19.75;;;10.57;;
54263;SDS011;40178;53.042;6.406;2023-04-21T06:40:39;16.60;;;9.90;;
54263;SDS011;40178;53.042;6.406;2023-04-21T06:43:05;18.25;;;10.13;;
54263;SDS011;40178;53.042;6.406;2023-04-21T06:45:31;17.75;;;9.23;;
54263;SDS011;40178;53.042;6.406;2023-04-21T06:47:57;17.40;;;9.50;;
54263;SDS011;40178;53.042;6.406;2023-04-21T06:50:22;15.63;;;9.38;;
54263;SDS011;40178;53.042;6.406;2023-04-21T06:52:48;14.65;;;9.38;;
54263;SDS011;40178;53.042;6.406;2023-04-21T06:55:13;16.55;;;10.48;;
54263;SDS011;40178;53.042;6.406;2023-04-21T06:57:39;21.27;;;10.45;;
54263;SDS011;40178;53.042;6.406;2023-04-21T07:00:05;17.02;;;9.38;;
54263;SDS011;40178;53.042;6.406;2023-04-21T07:02:31;16.63;;;9.73;;
54263;SDS011;40178;53.042;6.406;2023-04-21T07:04:57;15.65;;;9.57;;
54263;SDS011;40178;53.042;6.406;2023-04-21T07:07:22;16.65;;;10.15;;
54263;SDS011;40178;53.042;6.406;2023-04-21T07:09:48;12.52;;;9.57;;
54263;SDS011;40178;53.042;6.406;2023-04-21T07:12:14;17.45;;;9.00;;
54263;SDS011;40178;53.042;6.406;2023-04-21T07:14:39;20.17;;;9.98;;
54263;SDS011;40178;53.042;6.406;2023-04-21T07:17:05;13.45;;;8.43;;
54263;SDS011;40178;53.042;6.406;2023-04-21T07:19:31;16.15;;;9.65;;
54263;SDS011;40178;53.042;6.406;2023-04-21T07:21:56;14.00;;;8.50;;
54263;SDS011;40178;53.042;6.406;2023-04-21T07:24:22;13.90;;;9.40;;
54263;SDS011;40178;53.042;6.406;2023-04-21T07:26:47;16.55;;;9.80;;
54263;SDS011;40178;53.042;6.406;2023-04-21T07:29:13;20.15;;;10.15;;
54263;SDS011;40178;53.042;6.406;2023-04-21T07:31:39;16.63;;;10.52;;
54263;SDS011;40178;53.042;6.406;2023-04-21T07:34:04;12.88;;;9.20;;
54263;SDS011;40178;53.042;6.406;2023-04-21T07:36:30;13.07;;;8.55;;
54263;SDS011;40178;53.042;6.406;2023-04-21T07:38:56;15.38;;;9.55;;
54263;SDS011;40178;53.042;6.406;2023-04-21T07:41:21;15.00;;;9.15;;
54263;SDS011;40178;53.042;6.406;2023-04-21T07:43:47;14.10;;;9.05;;
54263;SDS011;40178;53.042;6.406;2023-04-21T07:46:12;15.77;;;8.93;;
54263;SDS011;40178;53.042;6.406;2023-04-21T07:48:39;13.45;;;8.68;;
54263;SDS011;40178;53.042;6.406;2023-04-21T07:51:05;16.80;;;9.07;;
54263;SDS011;40178;53.042;6.406;2023-04-21T07:53:31;14.25;;;8.15;;
54263;SDS011;40178;53.042;6.406;2023-04-21T07:55:56;15.25;;;9.13;;
54263;SDS011;40178;53.042;6.406;2023-04-21T07:58:22;14.50;;;8.55;;
54263;SDS011;40178;53.042;6.406;2023-04-21T08:00:48;14.52;;;8.43;;
54263;SDS011;40178;53.042;6.406;2023-04-21T08:03:14;15.05;;;8.88;;
54263;SDS011;40178;53.042;6.406;2023-04-21T08:05:40;14.98;;;8.50;;
54263;SDS011;40178;53.042;6.406;2023-04-21T08:08:05;14.93;;;8.60;;
54263;SDS011;40178;53.042;6.406;2023-04-21T08:10:31;14.23;;;8.75;;
54263;SDS011;40178;53.042;6.406;2023-04-21T08:12:57;14.93;;;8.25;;
54263;SDS011;40178;53.042;6.406;2023-04-21T08:15:23;15.50;;;9.15;;
54263;SDS011;40178;53.042;6.406;2023-04-21T08:17:49;14.15;;;8.82;;
54263;SDS011;40178;53.042;6.406;2023-04-21T08:20:14;13.10;;;8.45;;
54263;SDS011;40178;53.042;6.406;2023-04-21T08:22:40;15.63;;;9.10;;
54263;SDS011;40178;53.042;6.406;2023-04-21T08:25:06;14.27;;;8.30;;
54263;SDS011;40178;53.042;6.406;2023-04-21T08:27:31;14.85;;;9.02;;
54263;SDS011;40178;53.042;6.406;2023-04-21T08:29:57;18.08;;;9.45;;
54263;SDS011;40178;53.042;6.406;2023-04-21T08:32:24;14.75;;;8.32;;
54263;SDS011;40178;53.042;6.406;2023-04-21T08:34:51;15.98;;;8.52;;
54263;SDS011;40178;53.042;6.406;2023-04-21T08:37:17;14.60;;;8.52;;
54263;SDS011;40178;53.042;6.406;2023-04-21T08:39:44;15.25;;;9.73;;
54263;SDS011;40178;53.042;6.406;2023-04-21T08:42:11;12.77;;;8.48;;
54263;SDS011;40178;53.042;6.406;2023-04-21T08:44:38;12.85;;;8.07;;
54263;SDS011;40178;53.042;6.406;2023-04-21T08:47:05;16.45;;;8.35;;
54263;SDS011;40178;53.042;6.406;2023-04-21T08:49:35;13.15;;;8.38;;
54263;SDS011;40178;53.042;6.406;2023-04-21T08:52:02;18.88;;;9.90;;
54263;SDS011;40178;53.042;6.406;2023-04-21T08:54:27;17.75;;;8.52;;
54263;SDS011;40178;53.042;6.406;2023-04-21T08:56:53;16.92;;;8.30;;
54263;SDS011;40178;53.042;6.406;2023-04-21T08:59:19;13.15;;;8.07;;
54263;SDS011;40178;53.042;6.406;2023-04-21T09:04:59;14.13;;;7.78;;
54263;SDS011;40178;53.042;6.406;2023-04-21T09:07:29;11.57;;;7.63;;
54263;SDS011;40178;53.042;6.406;2023-04-21T09:09:56;15.15;;;8.95;;
54263;SDS011;40178;53.042;6.406;2023-04-21T09:12:23;13.73;;;8.35;;
54263;SDS011;40178;53.042;6.406;2023-04-21T09:14:49;14.90;;;8.30;;
54263;SDS011;40178;53.042;6.406;2023-04-21T09:17:16;17.65;;;9.10;;
54263;SDS011;40178;53.042;6.406;2023-04-21T09:19:43;14.48;;;8.60;;
54263;SDS011;40178;53.042;6.406;2023-04-21T09:22:13;15.15;;;8.43;;
54263;SDS011;40178;53.042;6.406;2023-04-21T09:24:45;13.52;;;7.95;;
54263;SDS011;40178;53.042;6.406;2023-04-21T09:27:14;14.88;;;8.00;;
54263;SDS011;40178;53.042;6.406;2023-04-21T09:29:46;13.32;;;7.90;;
54263;SDS011;40178;53.042;6.406;2023-04-21T09:32:15;14.90;;;8.18;;
54263;SDS011;40178;53.042;6.406;2023-04-21T09:34:43;13.68;;;8.30;;
54263;SDS011;40178;53.042;6.406;2023-04-21T09:37:09;14.50;;;8.75;;
54263;SDS011;40178;53.042;6.406;2023-04-21T09:39:36;12.90;;;8.23;;
54263;SDS011;40178;53.042;6.406;2023-04-21T09:42:02;13.75;;;8.45;;
54263;SDS011;40178;53.042;6.406;2023-04-21T09:44:28;15.93;;;8.05;;
54263;SDS011;40178;53.042;6.406;2023-04-21T09:46:57;14.43;;;8.43;;
54263;SDS011;40178;53.042;6.406;2023-04-21T09:49:27;16.08;;;8.25;;
54263;SDS011;40178;53.042;6.406;2023-04-21T09:51:58;14.00;;;8.52;;
54263;SDS011;40178;53.042;6.406;2023-04-21T09:54:28;12.10;;;6.95;;
54263;SDS011;40178;53.042;6.406;2023-04-21T09:56:57;10.98;;;8.25;;
54263;SDS011;40178;53.042;6.406;2023-04-21T09:59:28;13.95;;;9.10;;
54263;SDS011;40178;53.042;6.406;2023-04-21T10:01:59;14.13;;;8.73;;
54263;SDS011;40178;53.042;6.406;2023-04-21T10:04:26;13.80;;;7.80;;
54263;SDS011;40178;53.042;6.406;2023-04-21T10:06:53;16.42;;;8.52;;
54263;SDS011;40178;53.042;6.406;2023-04-21T10:09:20;13.13;;;7.95;;
54263;SDS011;40178;53.042;6.406;2023-04-21T10:11:50;16.30;;;8.82;;
54263;SDS011;40178;53.042;6.406;2023-04-21T10:14:16;12.90;;;7.63;;
54263;SDS011;40178;53.042;6.406;2023-04-21T10:16:42;13.85;;;8.27;;
54263;SDS011;40178;53.042;6.406;2023-04-21T10:19:23;12.65;;;7.70;;
54263;SDS011;40178;53.042;6.406;2023-04-21T10:21:55;13.98;;;8.35;;
54263;SDS011;40178;53.042;6.406;2023-04-21T10:24:21;13.25;;;8.45;;
54263;SDS011;40178;53.042;6.406;2023-04-21T10:26:49;12.88;;;8.10;;
54263;SDS011;40178;53.042;6.406;2023-04-21T10:29:15;13.23;;;7.53;;
54263;SDS011;40178;53.042;6.406;2023-04-21T10:31:52;12.75;;;7.88;;
54263;SDS011;40178;53.042;6.406;2023-04-21T10:34:19;13.93;;;8.23;;
54263;SDS011;40178;53.042;6.406;2023-04-21T10:39:29;11.95;;;7.72;;
54263;SDS011;40178;53.042;6.406;2023-04-21T10:45:00;15.95;;;8.88;;
54263;SDS011;40178;53.042;6.406;2023-04-21T10:49:56;15.85;;;8.90;;
54263;SDS011;40178;53.042;6.406;2023-04-21T10:52:29;13.50;;;7.65;;
54263;SDS011;40178;53.042;6.406;2023-04-21T10:57:24;15.10;;;7.57;;
54263;SDS011;40178;53.042;6.406;2023-04-21T10:59:49;13.57;;;7.97;;
54263;SDS011;40178;53.042;6.406;2023-04-21T11:02:18;11.05;;;7.20;;
54263;SDS011;40178;53.042;6.406;2023-04-21T11:04:43;11.25;;;7.18;;
54263;SDS011;40178;53.042;6.406;2023-04-21T11:07:18;11.95;;;7.47;;
54263;SDS011;40178;53.042;6.406;2023-04-21T11:09:45;13.07;;;8.02;;
54263;SDS011;40178;53.042;6.406;2023-04-21T11:12:13;10.80;;;7.32;;
54263;SDS011;40178;53.042;6.406;2023-04-21T11:14:40;13.88;;;7.18;;
54263;SDS011;40178;53.042;6.406;2023-04-21T11:17:11;14.32;;;7.20;;
54263;SDS011;40178;53.042;6.406;2023-04-21T11:19:37;13.23;;;7.20;;
54263;SDS011;40178;53.042;6.406;2023-04-21T11:22:04;12.55;;;7.45;;
54263;SDS011;40178;53.042;6.406;2023-04-21T11:24:30;12.02;;;7.43;;
54263;SDS011;40178;53.042;6.406;2023-04-21T11:26:56;12.10;;;7.13;;
54263;SDS011;40178;53.042;6.406;2023-04-21T11:29:22;13.57;;;8.27;;
54263;SDS011;40178;53.042;6.406;2023-04-21T11:31:48;13.73;;;6.15;;
54263;SDS011;40178;53.042;6.406;2023-04-21T11:34:15;15.93;;;6.40;;
54263;SDS011;40178;53.042;6.406;2023-04-21T11:36:46;13.75;;;6.68;;
54263;SDS011;40178;53.042;6.406;2023-04-21T11:39:13;15.13;;;6.18;;
54263;SDS011;40178;53.042;6.406;2023-04-21T11:41:41;12.25;;;6.53;;
54263;SDS011;40178;53.042;6.406;2023-04-21T11:44:11;10.82;;;5.95;;
54263;SDS011;40178;53.042;6.406;2023-04-21T11:46:45;8.63;;;5.40;;
54263;SDS011;40178;53.042;6.406;2023-04-21T11:49:12;10.80;;;5.15;;
54263;SDS011;40178;53.042;6.406;2023-04-21T11:51:39;13.88;;;5.53;;
54263;SDS011;40178;53.042;6.406;2023-04-21T11:54:08;9.75;;;4.85;;
54263;SDS011;40178;53.042;6.406;2023-04-21T11:56:35;8.77;;;5.32;;
54263;SDS011;40178;53.042;6.406;2023-04-21T11:59:06;9.15;;;4.85;;
54263;SDS011;40178;53.042;6.406;2023-04-21T12:01:33;10.48;;;5.68;;
54263;SDS011;40178;53.042;6.406;2023-04-21T12:03:59;9.65;;;5.43;;
54263;SDS011;40178;53.042;6.406;2023-04-21T12:06:27;8.48;;;5.03;;
54263;SDS011;40178;53.042;6.406;2023-04-21T12:08:59;8.48;;;5.28;;
54263;SDS011;40178;53.042;6.406;2023-04-21T12:11:27;10.80;;;4.37;;
54263;SDS011;40178;53.042;6.406;2023-04-21T12:13:55;6.93;;;4.00;;
54263;SDS011;40178;53.042;6.406;2023-04-21T12:16:24;6.82;;;4.32;;
54263;SDS011;40178;53.042;6.406;2023-04-21T12:18:54;8.10;;;4.40;;
54263;SDS011;40178;53.042;6.406;2023-04-21T12:21:20;10.52;;;4.65;;
54263;SDS011;40178;53.042;6.406;2023-04-21T12:23:46;6.85;;;3.92;;
54263;SDS011;40178;53.042;6.406;2023-04-21T12:26:11;11.23;;;4.30;;
54263;SDS011;40178;53.042;6.406;2023-04-21T12:28:37;7.45;;;4.03;;
54263;SDS011;40178;53.042;6.406;2023-04-21T12:31:04;9.05;;;4.60;;
54263;SDS011;40178;53.042;6.406;2023-04-21T12:33:30;10.43;;;4.60;;
54263;SDS011;40178;53.042;6.406;2023-04-21T12:35:55;8.85;;;4.30;;
54263;SDS011;40178;53.042;6.406;2023-04-21T12:38:21;8.38;;;4.00;;
54263;SDS011;40178;53.042;6.406;2023-04-21T12:40:47;9.32;;;4.95;;
54263;SDS011;40178;53.042;6.406;2023-04-21T12:43:13;9.65;;;4.40;;
54263;SDS011;40178;53.042;6.406;2023-04-21T12:45:38;8.55;;;4.05;;
54263;SDS011;40178;53.042;6.406;2023-04-21T12:48:04;7.47;;;3.90;;
54263;SDS011;40178;53.042;6.406;2023-04-21T12:50:30;9.98;;;4.40;;
54263;SDS011;40178;53.042;6.406;2023-04-21T12:52:56;7.85;;;4.13;;
54263;SDS011;40178;53.042;6.406;2023-04-21T12:55:22;10.25;;;4.82;;
54263;SDS011;40178;53.042;6.406;2023-04-21T12:57:48;10.50;;;4.03;;
54263;SDS011;40178;53.042;6.406;2023-04-21T13:00:14;9.93;;;5.00;;
54263;SDS011;40178;53.042;6.406;2023-04-21T13:02:41;9.75;;;3.83;;
54263;SDS011;40178;53.042;6.406;2023-04-21T13:05:06;7.78;;;4.20;;
54263;SDS011;40178;53.042;6.406;2023-04-21T13:07:34;10.50;;;4.22;;
54263;SDS011;40178;53.042;6.406;2023-04-21T13:10:00;8.20;;;3.80;;
54263;SDS011;40178;53.042;6.406;2023-04-21T13:12:27;9.45;;;3.40;;
54263;SDS011;40178;53.042;6.406;2023-04-21T13:14:52;5.85;;;3.35;;
54263;SDS011;40178;53.042;6.406;2023-04-21T13:17:18;10.02;;;4.15;;
54263;SDS011;40178;53.042;6.406;2023-04-21T13:19:44;8.40;;;3.60;;
54263;SDS011;40178;53.042;6.406;2023-04-21T13:22:09;11.07;;;3.80;;
54263;SDS011;40178;53.042;6.406;2023-04-21T13:24:35;9.52;;;3.80;;
54263;SDS011;40178;53.042;6.406;2023-04-21T13:27:01;11.27;;;4.32;;
54263;SDS011;40178;53.042;6.406;2023-04-21T13:29:27;6.72;;;3.20;;
54263;SDS011;40178;53.042;6.406;2023-04-21T13:31:54;6.28;;;3.20;;
54263;SDS011;40178;53.042;6.406;2023-04-21T13:34:20;6.43;;;3.15;;
54263;SDS011;40178;53.042;6.406;2023-04-21T13:36:46;7.90;;;3.03;;
54263;SDS011;40178;53.042;6.406;2023-04-21T13:39:12;8.23;;;3.00;;
54263;SDS011;40178;53.042;6.406;2023-04-21T13:41:39;5.20;;;2.83;;
54263;SDS011;40178;53.042;6.406;2023-04-21T13:44:04;7.15;;;2.83;;
54263;SDS011;40178;53.042;6.406;2023-04-21T13:46:30;7.43;;;3.08;;
54263;SDS011;40178;53.042;6.406;2023-04-21T13:48:56;8.98;;;3.45;;
54263;SDS011;40178;53.042;6.406;2023-04-21T13:51:22;8.02;;;3.28;;
54263;SDS011;40178;53.042;6.406;2023-04-21T13:53:47;8.98;;;3.92;;
54263;SDS011;40178;53.042;6.406;2023-04-21T13:56:13;6.72;;;2.72;;
54263;SDS011;40178;53.042;6.406;2023-04-21T13:58:39;4.95;;;2.55;;
54263;SDS011;40178;53.042;6.406;2023-04-21T14:01:05;6.70;;;2.70;;
54263;SDS011;40178;53.042;6.406;2023-04-21T14:03:31;5.50;;;2.72;;
54263;SDS011;40178;53.042;6.406;2023-04-21T14:05:56;7.18;;;2.75;;
54263;SDS011;40178;53.042;6.406;2023-04-21T14:08:22;11.70;;;3.03;;
54263;SDS011;40178;53.042;6.406;2023-04-21T14:10:48;9.30;;;3.67;;
54263;SDS011;40178;53.042;6.406;2023-04-21T14:13:13;7.82;;;2.65;;
54263;SDS011;40178;53.042;6.406;2023-04-21T14:15:39;7.07;;;2.55;;
54263;SDS011;40178;53.042;6.406;2023-04-21T14:18:04;9.88;;;2.95;;
54263;SDS011;40178;53.042;6.406;2023-04-21T14:20:30;7.28;;;3.20;;
54263;SDS011;40178;53.042;6.406;2023-04-21T14:22:56;7.57;;;2.88;;
54263;SDS011;40178;53.042;6.406;2023-04-21T14:25:21;8.57;;;3.50;;
54263;SDS011;40178;53.042;6.406;2023-04-21T14:27:47;10.30;;;2.92;;
54263;SDS011;40178;53.042;6.406;2023-04-21T14:30:13;9.18;;;2.67;;
54263;SDS011;40178;53.042;6.406;2023-04-21T14:32:39;5.45;;;2.75;;
54263;SDS011;40178;53.042;6.406;2023-04-21T14:35:09;6.18;;;2.92;;
54263;SDS011;40178;53.042;6.406;2023-04-21T14:37:35;7.63;;;2.95;;
54263;SDS011;40178;53.042;6.406;2023-04-21T14:40:01;8.10;;;2.60;;
54263;SDS011;40178;53.042;6.406;2023-04-21T14:42:28;8.27;;;3.05;;